Terminal Aerodrome Forecast
Issued by NWS

Home | Current Version | Previous Version | Text Only | Print | Product List | Glossary On
Versions: 1 2 3 4 5 6 7 8 9 10 11 12 13 14 15 16 17 18 19 20 21 22 23 24 25 26 27 28
874
FTUS46 KEKA 102328
TAFUKI
TAF
KUKI 102328Z 1100/1124 VRB05KT P6SM -SHRA BKN025 OVC040
     FM110300 33004KT P6SM OVC250
     FM110600 00000KT 4SM BR BKN010 BKN250
     FM111700 34004KT P6SM SCT250=

USA.gov is the U.S. government's official web portal to all federal, state and local government web resources and services.